Overview Statistics Trail Chart Weather Telemetry Raw packets
 

This is the latest recevied weather packets stored in our database for station/object DL8BGD. If no packets are shown the sender has not sent any weather packets the latest 10 day(s).

<< 2 3 4 5 6 7 8 >>
Time Temp. Humidity Pressure Rain* Wind** Luminosity Snow
1788526815 31.11° C 17% 1021 hPa 0 mm - - -
1788526215 31.11° C 18% 1021.1 hPa 0 mm - - -
1788525614 31.11° C 19% 1021.2 hPa 0 mm - - -
1788525014 31.11° C 18% 1021.5 hPa 0 mm - - -
1788524414 31.11° C 19% 1021.6 hPa 0 mm - - -
1788523813 30.56° C 21% 1021.7 hPa 0 mm - - -
1788523213 31.11° C 19% 1021.9 hPa 0 mm - - -
1788522613 30.56° C 18% 1022.1 hPa 0 mm - - -
1788522012 30.56° C 23% 1022.3 hPa 0 mm - - -
1788521468 30° C 23% 1022.4 hPa 0 mm - - -
1788521412 30° C 23% 1022.4 hPa 0 mm - - -
1788375252 17.78° C 69% 1025.6 hPa 0 mm - - -
1788374651 17.78° C 68% 1025.5 hPa 0 mm - - -
1788374057 18.33° C 68% 1025.4 hPa 0 mm - - -
1788373450 18.33° C 67% 1025.4 hPa 0 mm - - -
1788372850 18.89° C 66% 1025.1 hPa 0 mm - - -
1788372249 19.44° C 65% 1025.1 hPa 0 mm - - -
1788371649 19.44° C 64% 1024.9 hPa 0 mm - - -
1788371049 19.44° C 63% 1024.8 hPa 0 mm - - -
1788370448 20° C 62% 1024.6 hPa 0 mm - - -
1788369247 20.56° C 60% 1024.4 hPa 0 mm - - -
1788368646 21.11° C 58% 1024.4 hPa 0 mm - - -
1788368046 21.67° C 57% 1024.4 hPa 0 mm - - -
1788367446 21.67° C 55% 1024.3 hPa 0 mm - - -
1788366845 22.22° C 52% 1024.2 hPa 0 mm - - -

* Rain since midnight (hover to see other rain measurements)
** Current wind speed in m/s (hover to see current wind gust speed)